Time;durP1;ratioP1;P1;durP2;ratioP2;P2;SDS_P1;SDS_P2;PMS_P1;PMS_P2;Temp;Humidity;BMP_temperature;BMP_pressure;BME280_temperature;BME280_humidity;BME280_pressure;Samples;Min_cycle;Max_cycle;Signal;HPM_P1;HPM_P2
2023/06/16 00:00:14;;;;;;;4.40;4.00;;;;;;;;;;4933851;29;20577;-73
2023/06/16 00:02:43;;;;;;;5.37;3.90;;;;;;;;;;4934459;29;20208;-72
2023/06/16 00:05:10;;;;;;;4.77;4.10;;;;;;;;;;4926866;29;20182;-72
2023/06/16 00:07:36;;;;;;;6.73;3.83;;;;;;;;;;4933166;29;20186;-72
2023/06/16 00:10:04;;;;;;;5.60;4.00;;;;;;;;;;4934161;29;20197;-72
2023/06/16 00:12:30;;;;;;;5.13;4.20;;;;;;;;;;4933241;29;20198;-72
2023/06/16 00:14:56;;;;;;;4.77;4.00;;;;;;;;;;4932872;29;20555;-72
2023/06/16 00:17:23;;;;;;;6.23;4.13;;;;;;;;;;4926396;29;20198;-72
2023/06/16 00:19:50;;;;;;;4.13;3.67;;;;;;;;;;4926487;29;20209;-72
2023/06/16 00:22:17;;;;;;;4.47;3.80;;;;;;;;;;4915196;29;20206;-72
2023/06/16 00:24:45;;;;;;;4.70;4.30;;;;;;;;;;4913931;29;20183;-72
2023/06/16 00:27:11;;;;;;;6.27;4.80;;;;;;;;;;4928673;29;20182;-72
2023/06/16 00:29:38;;;;;;;4.53;4.13;;;;;;;;;;4932548;29;20281;-72
2023/06/16 00:32:05;;;;;;;4.40;3.60;;;;;;;;;;4932737;29;20229;-72
2023/06/16 00:34:31;;;;;;;5.07;4.07;;;;;;;;;;4932710;29;20265;-72
2023/06/16 00:36:58;;;;;;;5.77;4.67;;;;;;;;;;4922442;29;20190;-72
2023/06/16 00:39:24;;;;;;;5.77;3.87;;;;;;;;;;4928752;29;20224;-72
2023/06/16 00:41:51;;;;;;;4.93;4.10;;;;;;;;;;4928762;29;20213;-72
2023/06/16 00:44:17;;;;;;;6.23;4.00;;;;;;;;;;4924349;29;20816;-72
2023/06/16 00:46:44;;;;;;;4.90;3.93;;;;;;;;;;4923817;29;20248;-72
2023/06/16 00:49:10;;;;;;;6.27;4.67;;;;;;;;;;4915193;29;20194;-72
2023/06/16 00:51:38;;;;;;;5.20;4.63;;;;;;;;;;4929296;29;20268;-72
2023/06/16 00:54:04;;;;;;;5.27;4.33;;;;;;;;;;4924773;29;20548;-72
2023/06/16 00:56:31;;;;;;;5.27;4.77;;;;;;;;;;4923743;29;20298;-72
2023/06/16 00:58:58;;;;;;;7.03;4.87;;;;;;;;;;4933702;29;20571;-72
2023/06/16 01:01:28;;;;;;;6.00;4.73;;;;;;;;;;4931908;29;20209;-72
2023/06/16 01:03:55;;;;;;;5.90;5.30;;;;;;;;;;4933537;29;20174;-72
2023/06/16 01:06:30;;;;;;;7.17;5.60;;;;;;;;;;4932616;29;20185;-72
2023/06/16 01:09:12;;;;;;;8.47;5.70;;;;;;;;;;4932407;29;20256;-72
2023/06/16 01:11:41;;;;;;;6.40;5.50;;;;;;;;;;4928387;29;20217;-72
2023/06/16 01:14:16;;;;;;;6.23;5.63;;;;;;;;;;4930173;29;20219;-72
2023/06/16 01:16:46;;;;;;;7.70;5.10;;;;;;;;;;4930552;29;20213;-72
2023/06/16 01:19:19;;;;;;;6.00;5.00;;;;;;;;;;4929835;29;20237;-72
2023/06/16 01:21:55;;;;;;;9.23;5.20;;;;;;;;;;4928912;29;20288;-72
2023/06/16 01:24:24;;;;;;;5.53;4.73;;;;;;;;;;4931668;29;20189;-72
2023/06/16 01:26:51;;;;;;;5.03;4.40;;;;;;;;;;4913859;29;20213;-72
2023/06/16 01:29:20;;;;;;;6.27;5.10;;;;;;;;;;4929126;29;20241;-72
2023/06/16 01:31:49;;;;;;;7.60;5.67;;;;;;;;;;4932845;29;20261;-72
2023/06/16 01:34:15;;;;;;;5.10;4.53;;;;;;;;;;4916178;29;20190;-72
2023/06/16 01:36:42;;;;;;;7.43;5.70;;;;;;;;;;4910603;29;20190;-72
2023/06/16 01:39:10;;;;;;;6.43;5.53;;;;;;;;;;4914372;29;20209;-72
2023/06/16 01:41:36;;;;;;;5.37;4.87;;;;;;;;;;4927479;29;20665;-72
2023/06/16 01:44:02;;;;;;;7.23;5.53;;;;;;;;;;4924755;29;20318;-72
2023/06/16 01:46:29;;;;;;;6.70;5.47;;;;;;;;;;4929957;29;20189;-72
2023/06/16 01:48:56;;;;;;;6.43;5.77;;;;;;;;;;4926299;29;20216;-72
2023/06/16 01:51:23;;;;;;;7.47;5.47;;;;;;;;;;4912994;29;20210;-72
2023/06/16 01:53:50;;;;;;;6.97;5.77;;;;;;;;;;4923865;29;20679;-72
2023/06/16 01:56:16;;;;;;;7.77;5.90;;;;;;;;;;4923943;29;20666;-72
2023/06/16 01:58:43;;;;;;;7.37;5.63;;;;;;;;;;4932000;29;20682;-72
2023/06/16 02:01:16;;;;;;;8.17;5.80;;;;;;;;;;4928376;29;20258;-72
2023/06/16 02:03:51;;;;;;;10.50;5.77;;;;;;;;;;4935501;29;20182;-72
2023/06/16 02:06:22;;;;;;;6.87;5.50;;;;;;;;;;4935505;29;20178;-72
2023/06/16 02:08:50;;;;;;;7.03;5.67;;;;;;;;;;4932486;29;20262;-72
2023/06/16 02:11:17;;;;;;;7.97;5.30;;;;;;;;;;4932283;29;20194;-72
2023/06/16 02:13:43;;;;;;;7.10;5.60;;;;;;;;;;4935654;29;20192;-72
2023/06/16 02:16:10;;;;;;;9.50;5.90;;;;;;;;;;4936123;29;20210;-72
2023/06/16 02:18:36;;;;;;;5.80;5.13;;;;;;;;;;4920976;29;20182;-72
2023/06/16 02:21:03;;;;;;;6.57;4.83;;;;;;;;;;4925592;29;20595;-72
2023/06/16 02:23:29;;;;;;;6.87;6.00;;;;;;;;;;4924715;29;20262;-72
2023/06/16 02:25:55;;;;;;;8.10;6.30;;;;;;;;;;4931507;29;20376;-72
2023/06/16 02:28:21;;;;;;;8.67;6.83;;;;;;;;;;4929654;29;20242;-72
2023/06/16 02:30:48;;;;;;;8.93;6.80;;;;;;;;;;4927130;29;20210;-72
2023/06/16 02:33:15;;;;;;;9.33;6.43;;;;;;;;;;4923731;29;20686;-72
2023/06/16 02:35:41;;;;;;;7.03;5.60;;;;;;;;;;4917318;29;20305;-72
2023/06/16 02:38:08;;;;;;;6.33;5.43;;;;;;;;;;4917859;29;20238;-72
2023/06/16 02:40:35;;;;;;;7.60;5.50;;;;;;;;;;4927854;29;20210;-72
2023/06/16 02:43:01;;;;;;;5.83;5.00;;;;;;;;;;4927540;29;20217;-72
2023/06/16 02:45:28;;;;;;;6.03;4.70;;;;;;;;;;4934279;29;20321;-72
2023/06/16 02:47:54;;;;;;;5.43;4.80;;;;;;;;;;4933779;29;20276;-72
2023/06/16 02:50:21;;;;;;;6.27;4.67;;;;;;;;;;4923462;29;20192;-72
2023/06/16 02:52:48;;;;;;;5.57;5.07;;;;;;;;;;4924221;29;20241;-72
2023/06/16 02:55:16;;;;;;;5.40;4.90;;;;;;;;;;4921521;29;20287;-72
2023/06/16 02:57:47;;;;;;;7.00;5.67;;;;;;;;;;4916273;29;20201;-72
2023/06/16 03:00:13;;;;;;;6.33;5.47;;;;;;;;;;4919089;29;20326;-72
2023/06/16 03:03:09;;;;;;;6.00;5.40;;;;;;;;;;4893976;29;20596;-72
2023/06/16 03:05:36;;;;;;;9.90;5.83;;;;;;;;;;4934412;29;20186;-72
2023/06/16 03:08:04;;;;;;;6.83;5.50;;;;;;;;;;4921478;29;20187;-72
2023/06/16 03:10:31;;;;;;;6.60;5.17;;;;;;;;;;4915292;29;20183;-72
2023/06/16 03:13:05;;;;;;;8.97;5.50;;;;;;;;;;4932135;29;20274;-72
2023/06/16 03:15:31;;;;;;;7.17;4.60;;;;;;;;;;4933128;29;20201;-72
2023/06/16 03:17:58;;;;;;;6.20;4.23;;;;;;;;;;4929903;29;20197;-72
2023/06/16 03:20:24;;;;;;;6.03;5.00;;;;;;;;;;4933764;29;20206;-72
2023/06/16 03:22:57;;;;;;;6.67;5.30;;;;;;;;;;4933791;29;20202;-72
2023/06/16 03:25:23;;;;;;;7.17;5.33;;;;;;;;;;4934130;29;20287;-73
2023/06/16 03:27:49;;;;;;;5.73;5.23;;;;;;;;;;4933297;29;20650;-72
2023/06/16 03:30:19;;;;;;;7.73;5.87;;;;;;;;;;4933119;29;20197;-72
2023/06/16 03:32:54;;;;;;;5.87;5.37;;;;;;;;;;4933773;29;20351;-72
2023/06/16 03:35:21;;;;;;;7.70;5.73;;;;;;;;;;4933945;29;20733;-72
2023/06/16 03:37:48;;;;;;;5.63;5.13;;;;;;;;;;4933114;29;20599;-72
2023/06/16 03:40:14;;;;;;;6.47;5.67;;;;;;;;;;4917005;29;20269;-72
2023/06/16 03:42:40;;;;;;;7.90;5.37;;;;;;;;;;4927925;29;20237;-72
2023/06/16 03:45:09;;;;;;;6.17;5.57;;;;;;;;;;4919513;29;20186;-72
2023/06/16 03:47:35;;;;;;;6.53;5.23;;;;;;;;;;4926484;29;20206;-72
2023/06/16 03:50:02;;;;;;;7.40;5.60;;;;;;;;;;4916719;29;20254;-72
2023/06/16 03:52:30;;;;;;;7.77;5.80;;;;;;;;;;4915255;29;20214;-72
2023/06/16 03:54:57;;;;;;;7.90;5.67;;;;;;;;;;4916973;29;20281;-72
2023/06/16 03:57:23;;;;;;;7.80;5.90;;;;;;;;;;4931821;29;20186;-72
2023/06/16 03:59:50;;;;;;;7.50;5.80;;;;;;;;;;4920604;29;20214;-72
2023/06/16 04:02:16;;;;;;;5.60;5.10;;;;;;;;;;4929616;29;20193;-72
2023/06/16 04:04:47;;;;;;;6.83;6.10;;;;;;;;;;4923337;29;20190;-72
2023/06/16 04:07:15;;;;;;;7.37;6.17;;;;;;;;;;4932573;29;20262;-72
2023/06/16 04:09:42;;;;;;;7.00;5.90;;;;;;;;;;4933333;29;20194;-72
2023/06/16 04:12:08;;;;;;;8.73;7.03;;;;;;;;;;4933298;29;20317;-72
2023/06/16 04:14:36;;;;;;;8.10;6.73;;;;;;;;;;4916705;29;20242;-72
2023/06/16 04:17:03;;;;;;;11.90;6.70;;;;;;;;;;4926204;29;20206;-72
2023/06/16 04:19:29;;;;;;;9.83;7.00;;;;;;;;;;4898589;29;20241;-72
2023/06/16 04:21:57;;;;;;;8.80;7.57;;;;;;;;;;4929341;29;20582;-72
2023/06/16 04:24:26;;;;;;;9.70;7.20;;;;;;;;;;4927584;29;20182;-72
2023/06/16 04:26:58;;;;;;;8.47;7.30;;;;;;;;;;4918967;29;20186;-72
2023/06/16 04:29:27;;;;;;;7.90;7.00;;;;;;;;;;4932313;29;20195;-72
2023/06/16 04:32:00;;;;;;;8.90;6.83;;;;;;;;;;4919259;29;20218;-72
2023/06/16 04:34:31;;;;;;;9.90;7.37;;;;;;;;;;4913895;29;20206;-72
2023/06/16 04:36:59;;;;;;;11.63;7.93;;;;;;;;;;4923294;29;20190;-72
2023/06/16 04:39:30;;;;;;;9.07;7.50;;;;;;;;;;4932776;29;20229;-72
2023/06/16 04:41:57;;;;;;;9.37;7.43;;;;;;;;;;4932442;29;20206;-72
2023/06/16 04:44:25;;;;;;;14.10;7.80;;;;;;;;;;4929068;29;20206;-71
2023/06/16 04:46:52;;;;;;;7.87;7.03;;;;;;;;;;4918988;29;20183;-72
2023/06/16 04:49:19;;;;;;;7.33;6.50;;;;;;;;;;4932612;29;20227;-72
2023/06/16 04:51:46;;;;;;;11.10;7.73;;;;;;;;;;4914837;29;20215;-72
2023/06/16 04:54:13;;;;;;;8.43;6.80;;;;;;;;;;4931378;29;20196;-72
2023/06/16 04:56:40;;;;;;;8.10;6.97;;;;;;;;;;4927479;29;20250;-72
2023/06/16 04:59:06;;;;;;;10.47;7.33;;;;;;;;;;4932179;29;21034;-72
2023/06/16 05:01:32;;;;;;;7.03;6.33;;;;;;;;;;4926319;29;20202;-71
2023/06/16 05:04:00;;;;;;;7.70;6.67;;;;;;;;;;4932132;29;20215;-71
2023/06/16 05:06:26;;;;;;;7.77;6.10;;;;;;;;;;4924737;29;20190;-72
2023/06/16 05:08:53;;;;;;;7.87;5.80;;;;;;;;;;4919343;29;20714;-72
2023/06/16 05:11:19;;;;;;;6.73;5.40;;;;;;;;;;4931520;29;20233;-72
2023/06/16 05:13:46;;;;;;;6.83;5.50;;;;;;;;;;4923591;29;20183;-72
2023/06/16 05:16:13;;;;;;;6.30;5.60;;;;;;;;;;4923270;29;20611;-72
2023/06/16 05:18:39;;;;;;;6.13;4.97;;;;;;;;;;4916504;29;20178;-72
2023/06/16 05:21:05;;;;;;;6.40;5.80;;;;;;;;;;4931801;29;20650;-72
2023/06/16 05:23:32;;;;;;;7.13;5.97;;;;;;;;;;4900667;29;20186;-72
2023/06/16 05:25:58;;;;;;;7.60;6.63;;;;;;;;;;4931118;29;20192;-72
2023/06/16 05:28:24;;;;;;;10.10;6.83;;;;;;;;;;4901044;29;20236;-72
2023/06/16 05:30:50;;;;;;;8.70;7.17;;;;;;;;;;4913823;29;20278;-75
2023/06/16 05:33:17;;;;;;;7.30;6.50;;;;;;;;;;4898290;29;20222;-73
2023/06/16 05:35:44;;;;;;;7.63;6.50;;;;;;;;;;4913931;29;20206;-75
2023/06/16 05:38:11;;;;;;;6.70;6.00;;;;;;;;;;4934630;29;20185;-75
2023/06/16 05:40:38;;;;;;;7.60;6.20;;;;;;;;;;4928165;29;20693;-79
2023/06/16 05:43:04;;;;;;;8.83;6.30;;;;;;;;;;4935935;29;20209;-78
2023/06/16 05:45:32;;;;;;;8.53;6.30;;;;;;;;;;4936891;29;20237;-76
2023/06/16 05:47:58;;;;;;;7.33;6.60;;;;;;;;;;4926074;29;20547;-77
2023/06/16 05:50:24;;;;;;;7.60;5.80;;;;;;;;;;4925001;29;20182;-76
2023/06/16 05:52:50;;;;;;;10.40;6.73;;;;;;;;;;4924249;29;20579;-77
2023/06/16 05:55:17;;;;;;;6.20;5.60;;;;;;;;;;4932658;29;20200;-76
2023/06/16 05:57:50;;;;;;;7.97;5.63;;;;;;;;;;4934957;29;20696;-74
2023/06/16 06:00:16;;;;;;;7.63;6.00;;;;;;;;;;4902561;29;20292;-73
2023/06/16 06:02:48;;;;;;;7.20;5.57;;;;;;;;;;4927857;29;20235;-73
2023/06/16 06:05:33;;;;;;;7.23;5.50;;;;;;;;;;4926315;29;20181;-74
2023/06/16 06:08:00;;;;;;;6.33;5.73;;;;;;;;;;4919233;29;20190;-73
2023/06/16 06:10:27;;;;;;;8.20;5.67;;;;;;;;;;4921162;29;20216;-73
2023/06/16 06:12:55;;;;;;;6.60;5.73;;;;;;;;;;4933085;29;20206;-73
2023/06/16 06:15:22;;;;;;;6.40;5.80;;;;;;;;;;4938161;29;20189;-73
2023/06/16 06:17:52;;;;;;;8.13;6.23;;;;;;;;;;4931591;29;20194;-73
2023/06/16 06:20:19;;;;;;;8.50;6.73;;;;;;;;;;4931295;29;20213;-73
2023/06/16 06:22:45;;;;;;;10.07;5.90;;;;;;;;;;4932685;29;20217;-74
2023/06/16 06:25:13;;;;;;;9.33;6.07;;;;;;;;;;4927408;29;20194;-74
2023/06/16 06:27:40;;;;;;;6.57;5.60;;;;;;;;;;4917327;29;20855;-76
2023/06/16 06:30:07;;;;;;;7.93;6.00;;;;;;;;;;4929221;29;20200;-75
2023/06/16 06:32:34;;;;;;;6.00;5.23;;;;;;;;;;4931904;29;20221;-75
2023/06/16 06:35:00;;;;;;;6.50;5.57;;;;;;;;;;4915640;29;20196;-75
2023/06/16 06:37:30;;;;;;;5.90;5.10;;;;;;;;;;4918367;29;20658;-75
2023/06/16 06:39:57;;;;;;;6.23;4.83;;;;;;;;;;4935154;29;20253;-75
2023/06/16 06:42:23;;;;;;;7.00;5.83;;;;;;;;;;4926555;29;20220;-75
2023/06/16 06:44:52;;;;;;;10.13;5.70;;;;;;;;;;4930780;29;20194;-75
2023/06/16 06:47:21;;;;;;;7.33;5.53;;;;;;;;;;4929996;29;20186;-75
2023/06/16 06:49:50;;;;;;;8.93;5.97;;;;;;;;;;4912476;29;20186;-75
2023/06/16 06:52:16;;;;;;;7.07;5.27;;;;;;;;;;4932550;29;20209;-75
2023/06/16 06:54:42;;;;;;;8.73;5.47;;;;;;;;;;4935495;29;20254;-75
2023/06/16 06:57:08;;;;;;;6.03;5.33;;;;;;;;;;4925465;29;20233;-75
2023/06/16 06:59:34;;;;;;;11.03;5.60;;;;;;;;;;4935652;29;20205;-75
2023/06/16 07:02:00;;;;;;;7.37;5.50;;;;;;;;;;4934237;29;20201;-75
2023/06/16 07:04:29;;;;;;;6.53;5.77;;;;;;;;;;4930341;29;20253;-75
2023/06/16 07:06:55;;;;;;;9.00;6.10;;;;;;;;;;4919533;29;21740;-75
2023/06/16 07:09:22;;;;;;;7.83;5.60;;;;;;;;;;4919024;29;20560;-75
2023/06/16 07:11:48;;;;;;;8.00;5.87;;;;;;;;;;4920345;29;20253;-75
2023/06/16 07:14:14;;;;;;;7.20;6.17;;;;;;;;;;4921579;29;20218;-75
2023/06/16 07:16:40;;;;;;;7.13;5.73;;;;;;;;;;4928991;29;20181;-75
2023/06/16 07:19:06;;;;;;;8.77;5.10;;;;;;;;;;4933917;29;20305;-75
2023/06/16 07:21:32;;;;;;;9.30;5.50;;;;;;;;;;4935180;29;20198;-75
2023/06/16 07:23:59;;;;;;;7.77;6.07;;;;;;;;;;4934359;29;20210;-75
2023/06/16 07:26:25;;;;;;;7.30;5.53;;;;;;;;;;4935690;29;20210;-75
2023/06/16 07:28:51;;;;;;;7.10;4.60;;;;;;;;;;4918960;29;20194;-75
2023/06/16 07:31:18;;;;;;;6.00;5.40;;;;;;;;;;4916154;29;20190;-75
2023/06/16 07:33:44;;;;;;;6.97;5.63;;;;;;;;;;4929862;29;20192;-74
2023/06/16 07:36:10;;;;;;;7.27;5.13;;;;;;;;;;4934236;29;20245;-75
2023/06/16 07:38:36;;;;;;;8.57;5.53;;;;;;;;;;4935652;29;20186;-75
2023/06/16 07:41:04;;;;;;;9.63;5.37;;;;;;;;;;4932635;29;20617;-75
2023/06/16 07:43:30;;;;;;;6.63;4.83;;;;;;;;;;4930475;29;20186;-75
2023/06/16 07:45:56;;;;;;;6.17;4.77;;;;;;;;;;4935587;29;20174;-75
2023/06/16 07:48:23;;;;;;;7.77;4.90;;;;;;;;;;4929584;29;20206;-75
2023/06/16 07:50:49;;;;;;;6.13;4.63;;;;;;;;;;4923500;29;20187;-75
2023/06/16 07:53:15;;;;;;;7.47;4.83;;;;;;;;;;4930637;29;20213;-75
2023/06/16 07:55:41;;;;;;;6.40;5.33;;;;;;;;;;4929734;29;20200;-75
2023/06/16 07:58:08;;;;;;;5.50;5.00;;;;;;;;;;4929915;29;20197;-75
2023/06/16 08:00:34;;;;;;;8.97;5.37;;;;;;;;;;4929882;28;20213;-75
2023/06/16 08:03:00;;;;;;;5.93;5.37;;;;;;;;;;4931089;29;20241;-75
2023/06/16 08:05:27;;;;;;;6.83;5.27;;;;;;;;;;4930039;29;20183;-75
2023/06/16 08:07:53;;;;;;;5.37;4.87;;;;;;;;;;4927042;29;20954;-75
2023/06/16 08:10:20;;;;;;;7.33;5.40;;;;;;;;;;4932770;29;20268;-75
2023/06/16 08:12:49;;;;;;;9.73;5.27;;;;;;;;;;4929534;29;20210;-75
2023/06/16 08:15:15;;;;;;;5.50;4.83;;;;;;;;;;4934023;29;20193;-75
2023/06/16 08:17:42;;;;;;;8.13;5.07;;;;;;;;;;4916034;29;20657;-75
2023/06/16 08:20:09;;;;;;;8.30;5.27;;;;;;;;;;4925222;29;20223;-75
2023/06/16 08:22:35;;;;;;;8.83;5.47;;;;;;;;;;4908356;29;20206;-75
2023/06/16 08:25:04;;;;;;;7.87;5.00;;;;;;;;;;4926251;29;20195;-75
2023/06/16 08:27:30;;;;;;;9.30;4.80;;;;;;;;;;4931627;29;20692;-75
2023/06/16 08:29:56;;;;;;;7.47;5.07;;;;;;;;;;4908915;29;20187;-75
2023/06/16 08:32:23;;;;;;;7.03;5.40;;;;;;;;;;4927301;29;20706;-75
2023/06/16 08:34:49;;;;;;;9.30;5.40;;;;;;;;;;4928613;29;20190;-75
2023/06/16 08:37:15;;;;;;;5.80;5.20;;;;;;;;;;4915002;29;20178;-75
2023/06/16 08:39:43;;;;;;;8.87;5.77;;;;;;;;;;4916883;29;20221;-75
2023/06/16 08:42:10;;;;;;;9.47;4.77;;;;;;;;;;4920360;29;20205;-75
2023/06/16 08:44:38;;;;;;;5.17;4.67;;;;;;;;;;4914697;29;20175;-75
2023/06/16 08:47:05;;;;;;;5.47;4.87;;;;;;;;;;4914516;29;20178;-75
2023/06/16 08:49:32;;;;;;;6.17;4.77;;;;;;;;;;4915599;29;20183;-75
2023/06/16 08:52:01;;;;;;;11.03;5.73;;;;;;;;;;4930690;29;20296;-75
2023/06/16 08:54:29;;;;;;;6.90;5.03;;;;;;;;;;4918001;29;20197;-75
2023/06/16 08:56:57;;;;;;;8.50;5.37;;;;;;;;;;4927274;29;20186;-75
2023/06/16 08:59:28;;;;;;;8.63;4.70;;;;;;;;;;4929832;29;20205;-74
2023/06/16 09:01:54;;;;;;;6.80;4.77;;;;;;;;;;4924896;29;20213;-74
2023/06/16 09:04:22;;;;;;;10.70;4.93;;;;;;;;;;4926854;29;20202;-74
2023/06/16 09:06:48;;;;;;;5.47;4.70;;;;;;;;;;4911727;29;20745;-74
2023/06/16 09:09:16;;;;;;;5.30;4.57;;;;;;;;;;4926350;29;20560;-74
2023/06/16 09:11:42;;;;;;;6.17;4.30;;;;;;;;;;4930751;29;20198;-76
2023/06/16 09:14:11;;;;;;;6.03;4.97;;;;;;;;;;4916716;29;20182;-76
2023/06/16 09:16:39;;;;;;;7.07;4.67;;;;;;;;;;4918875;29;20191;-76
2023/06/16 09:19:06;;;;;;;6.80;4.40;;;;;;;;;;4920838;29;20268;-74
2023/06/16 09:21:33;;;;;;;7.20;4.30;;;;;;;;;;4931202;29;20204;-74
2023/06/16 09:24:00;;;;;;;5.93;4.23;;;;;;;;;;4929496;29;20189;-74
2023/06/16 09:26:30;;;;;;;4.93;4.53;;;;;;;;;;4932594;29;20273;-74
2023/06/16 09:28:57;;;;;;;5.97;4.63;;;;;;;;;;4932473;29;20646;-74
2023/06/16 09:31:24;;;;;;;5.70;4.90;;;;;;;;;;4932556;29;20210;-74
2023/06/16 09:33:50;;;;;;;7.40;4.43;;;;;;;;;;4931217;29;20178;-74
2023/06/16 09:36:26;;;;;;;5.77;4.67;;;;;;;;;;4924372;29;20265;-74
2023/06/16 09:38:52;;;;;;;8.30;4.87;;;;;;;;;;4929074;29;20189;-74
2023/06/16 09:41:18;;;;;;;5.30;4.67;;;;;;;;;;4925885;29;20553;-74
2023/06/16 09:43:45;;;;;;;5.27;4.30;;;;;;;;;;4924817;29;20334;-74
2023/06/16 09:46:12;;;;;;;5.50;4.67;;;;;;;;;;4932420;29;20201;-74
2023/06/16 09:48:46;;;;;;;5.60;4.47;;;;;;;;;;4929600;29;20206;-74
2023/06/16 09:51:15;;;;;;;6.43;4.17;;;;;;;;;;4923134;29;20270;-75
2023/06/16 09:53:41;;;;;;;7.10;4.60;;;;;;;;;;4922622;29;20184;-75
2023/06/16 09:56:08;;;;;;;6.47;4.57;;;;;;;;;;4926525;29;20226;-74
2023/06/16 09:58:34;;;;;;;4.83;4.37;;;;;;;;;;4928282;29;20191;-78
2023/06/16 10:01:01;;;;;;;4.50;4.07;;;;;;;;;;4913311;29;20213;-74
2023/06/16 10:03:30;;;;;;;9.27;4.30;;;;;;;;;;4933386;29;20205;-75
2023/06/16 10:05:57;;;;;;;6.93;4.27;;;;;;;;;;4941684;29;20208;-77
2023/06/16 10:08:24;;;;;;;5.97;4.50;;;;;;;;;;4940791;29;20213;-76
2023/06/16 10:10:52;;;;;;;5.63;4.10;;;;;;;;;;4946704;29;20193;-76
2023/06/16 10:13:20;;;;;;;6.07;4.10;;;;;;;;;;4936011;28;20235;-76
2023/06/16 10:15:47;;;;;;;10.40;4.67;;;;;;;;;;4943927;28;20232;-76
2023/06/16 10:18:15;;;;;;;5.57;4.53;;;;;;;;;;4931140;29;20241;-76
2023/06/16 10:20:42;;;;;;;6.33;4.60;;;;;;;;;;4927703;29;20219;-76
2023/06/16 10:23:08;;;;;;;6.80;4.60;;;;;;;;;;4921000;29;20213;-76
2023/06/16 10:25:35;;;;;;;4.63;4.23;;;;;;;;;;4936542;28;20195;-76
2023/06/16 10:28:07;;;;;;;5.73;4.50;;;;;;;;;;4951044;29;20659;-76
2023/06/16 10:30:34;;;;;;;5.33;4.20;;;;;;;;;;4934036;28;20617;-77
2023/06/16 10:33:00;;;;;;;7.33;4.50;;;;;;;;;;4932363;29;20217;-76
2023/06/16 10:35:26;;;;;;;5.03;4.17;;;;;;;;;;4946509;28;20194;-76
2023/06/16 10:37:53;;;;;;;6.73;4.53;;;;;;;;;;4933453;29;20193;-76
2023/06/16 10:40:23;;;;;;;5.30;4.50;;;;;;;;;;4931970;29;20709;-76
2023/06/16 10:42:52;;;;;;;8.73;4.40;;;;;;;;;;4930164;29;20258;-76
2023/06/16 10:45:36;;;;;;;5.87;4.20;;;;;;;;;;4932665;29;20633;-76
2023/06/16 10:48:05;;;;;;;5.63;4.27;;;;;;;;;;4924560;29;20190;-76
2023/06/16 10:50:31;;;;;;;7.17;4.40;;;;;;;;;;4932194;29;20185;-76
2023/06/16 10:53:07;;;;;;;5.83;4.60;;;;;;;;;;4934648;29;20305;-76
2023/06/16 10:55:35;;;;;;;5.13;4.63;;;;;;;;;;4932549;29;20194;-76
2023/06/16 10:58:17;;;;;;;7.63;4.00;;;;;;;;;;4924497;29;20252;-74
2023/06/16 11:00:44;;;;;;;8.17;4.63;;;;;;;;;;4930341;29;20228;-74
2023/06/16 11:03:11;;;;;;;5.00;4.50;;;;;;;;;;4934106;29;20621;-74
2023/06/16 11:05:38;;;;;;;8.33;5.10;;;;;;;;;;4952640;28;20188;-74
2023/06/16 11:08:08;;;;;;;7.27;4.50;;;;;;;;;;4915099;29;20188;-76
2023/06/16 11:10:53;;;;;;;7.07;4.10;;;;;;;;;;4930527;29;20567;-74
2023/06/16 11:13:22;;;;;;;8.93;4.80;;;;;;;;;;4927394;29;20212;-74
2023/06/16 11:15:49;;;;;;;4.63;4.23;;;;;;;;;;4929704;29;20193;-74
2023/06/16 11:18:17;;;;;;;5.77;4.30;;;;;;;;;;4928249;29;20558;-74
2023/06/16 11:20:43;;;;;;;5.13;4.40;;;;;;;;;;4934133;29;20229;-74
2023/06/16 11:23:10;;;;;;;9.33;4.87;;;;;;;;;;4932105;29;20209;-75
2023/06/16 11:25:37;;;;;;;7.33;4.73;;;;;;;;;;4932399;29;20189;-75
2023/06/16 11:28:04;;;;;;;6.10;4.73;;;;;;;;;;4923005;29;20480;-76
2023/06/16 11:30:31;;;;;;;5.70;4.47;;;;;;;;;;4937880;29;20225;-76
2023/06/16 11:32:57;;;;;;;5.23;4.60;;;;;;;;;;4936381;29;20206;-74
2023/06/16 11:35:33;;;;;;;4.70;4.30;;;;;;;;;;4933443;29;20265;-74
2023/06/16 11:37:59;;;;;;;5.13;4.60;;;;;;;;;;4942556;28;20188;-73
2023/06/16 11:40:32;;;;;;;9.10;4.80;;;;;;;;;;4938012;28;20242;-75
2023/06/16 11:43:08;;;;;;;6.47;5.57;;;;;;;;;;4921249;29;20205;-78
2023/06/16 11:45:39;;;;;;;5.03;4.53;;;;;;;;;;4933832;29;20189;-76
2023/06/16 11:48:07;;;;;;;5.03;4.50;;;;;;;;;;4930131;29;20552;-74
2023/06/16 11:50:33;;;;;;;8.40;4.50;;;;;;;;;;4926442;29;20239;-74
2023/06/16 11:53:00;;;;;;;6.13;4.70;;;;;;;;;;4924298;29;20669;-73
2023/06/16 11:55:26;;;;;;;7.50;4.90;;;;;;;;;;4929898;29;20686;-73
2023/06/16 11:57:52;;;;;;;7.40;4.17;;;;;;;;;;4932981;29;20295;-73
2023/06/16 12:00:20;;;;;;;5.83;4.50;;;;;;;;;;4932070;29;20672;-73
2023/06/16 12:02:47;;;;;;;5.83;4.10;;;;;;;;;;4923883;29;20301;-74
2023/06/16 12:05:18;;;;;;;5.00;4.50;;;;;;;;;;4913815;29;20188;-74
2023/06/16 12:07:44;;;;;;;4.83;4.37;;;;;;;;;;4929589;29;20184;-74
2023/06/16 12:10:10;;;;;;;5.60;4.57;;;;;;;;;;4932339;29;20217;-73
2023/06/16 12:12:40;;;;;;;8.23;4.90;;;;;;;;;;4931278;29;20214;-74
2023/06/16 12:15:07;;;;;;;4.70;4.23;;;;;;;;;;4929009;29;20191;-73
2023/06/16 12:17:33;;;;;;;9.00;4.30;;;;;;;;;;4934189;29;20223;-74
2023/06/16 12:20:03;;;;;;;4.70;4.20;;;;;;;;;;4927992;29;20298;-74
2023/06/16 12:22:38;;;;;;;5.73;4.67;;;;;;;;;;4932838;29;20290;-76
2023/06/16 12:25:09;;;;;;;4.70;4.20;;;;;;;;;;4930194;29;20195;-78
2023/06/16 12:27:36;;;;;;;4.80;4.30;;;;;;;;;;4929049;29;20554;-75
2023/06/16 12:30:03;;;;;;;5.93;4.60;;;;;;;;;;4929383;29;20183;-76
2023/06/16 12:32:33;;;;;;;6.73;4.60;;;;;;;;;;4930212;29;20202;-74
2023/06/16 12:35:00;;;;;;;4.33;3.93;;;;;;;;;;4931394;29;20672;-74
2023/06/16 12:37:27;;;;;;;8.43;4.70;;;;;;;;;;4931155;29;20190;-74
2023/06/16 12:40:14;;;;;;;5.93;4.63;;;;;;;;;;4936880;29;20214;-74
2023/06/16 12:42:40;;;;;;;4.47;4.07;;;;;;;;;;4928444;29;20242;-74
2023/06/16 12:45:07;;;;;;;4.30;3.97;;;;;;;;;;4934202;29;20671;-74
2023/06/16 12:47:35;;;;;;;4.90;4.40;;;;;;;;;;4933177;29;20632;-74
2023/06/16 12:50:02;;;;;;;4.53;4.13;;;;;;;;;;4934110;29;20720;-74
2023/06/16 12:52:29;;;;;;;5.47;4.33;;;;;;;;;;4929741;29;20205;-74
2023/06/16 12:54:56;;;;;;;4.60;4.20;;;;;;;;;;4927378;29;20193;-74
2023/06/16 12:57:23;;;;;;;5.40;3.93;;;;;;;;;;4929033;29;20613;-74
2023/06/16 12:59:51;;;;;;;5.80;4.10;;;;;;;;;;4928326;29;20212;-74
2023/06/16 13:02:17;;;;;;;4.17;3.70;;;;;;;;;;4933639;29;20216;-74
2023/06/16 13:04:43;;;;;;;6.43;3.67;;;;;;;;;;4929299;29;20791;-74
2023/06/16 13:07:10;;;;;;;4.27;3.87;;;;;;;;;;4931493;29;20186;-74
2023/06/16 13:09:37;;;;;;;5.03;4.07;;;;;;;;;;4933877;29;20676;-74
2023/06/16 13:12:04;;;;;;;5.40;3.97;;;;;;;;;;4924022;29;20223;-74
2023/06/16 13:14:30;;;;;;;4.10;3.80;;;;;;;;;;4928516;29;20662;-75
2023/06/16 13:16:56;;;;;;;5.53;3.87;;;;;;;;;;4925381;29;20192;-75
2023/06/16 13:19:23;;;;;;;5.73;3.80;;;;;;;;;;4932847;29;20308;-75
2023/06/16 13:21:49;;;;;;;5.17;3.60;;;;;;;;;;4927903;29;20216;-75
2023/06/16 13:24:16;;;;;;;6.00;4.10;;;;;;;;;;4914920;29;20182;-75
2023/06/16 13:26:43;;;;;;;4.70;3.80;;;;;;;;;;4936672;29;20229;-75
2023/06/16 13:29:09;;;;;;;7.10;3.80;;;;;;;;;;4929269;29;20243;-75
2023/06/16 13:31:35;;;;;;;5.20;3.17;;;;;;;;;;4930721;29;20610;-75
2023/06/16 13:34:01;;;;;;;3.60;3.30;;;;;;;;;;4933976;28;20215;-75
2023/06/16 13:36:27;;;;;;;4.47;3.50;;;;;;;;;;4936063;29;20579;-74
2023/06/16 13:38:54;;;;;;;3.80;3.43;;;;;;;;;;4929787;29;20189;-74
2023/06/16 13:41:27;;;;;;;3.50;3.20;;;;;;;;;;4934991;29;20204;-75
2023/06/16 13:43:54;;;;;;;4.77;3.50;;;;;;;;;;4926670;29;20200;-75
2023/06/16 13:46:21;;;;;;;4.93;3.17;;;;;;;;;;4933378;29;20187;-75
2023/06/16 13:48:47;;;;;;;3.42;3.13;;;;;;;;;;4929484;29;20225;-75
2023/06/16 13:51:14;;;;;;;3.53;3.23;;;;;;;;;;4931355;29;20181;-75
2023/06/16 13:53:42;;;;;;;3.80;3.45;;;;;;;;;;4931482;29;20183;-75
2023/06/16 13:56:09;;;;;;;4.82;3.50;;;;;;;;;;4931124;29;20187;-75
2023/06/16 13:58:35;;;;;;;4.22;3.72;;;;;;;;;;4934095;29;20223;-75
2023/06/16 14:01:01;;;;;;;3.55;3.30;;;;;;;;;;4931063;29;20225;-75
2023/06/16 14:03:28;;;;;;;3.28;2.97;;;;;;;;;;4933031;29;20188;-75
2023/06/16 14:05:55;;;;;;;4.03;3.40;;;;;;;;;;4943251;28;20275;-75
2023/06/16 14:08:22;;;;;;;3.70;3.40;;;;;;;;;;4938572;29;20198;-75
2023/06/16 14:10:50;;;;;;;5.27;3.43;;;;;;;;;;4936923;29;20633;-74
2023/06/16 14:13:17;;;;;;;4.33;3.40;;;;;;;;;;4934788;29;20282;-74
2023/06/16 14:15:44;;;;;;;3.37;3.13;;;;;;;;;;4935095;29;20185;-75
2023/06/16 14:18:10;;;;;;;3.07;2.87;;;;;;;;;;4934641;29;20189;-75
2023/06/16 14:20:36;;;;;;;5.93;3.17;;;;;;;;;;4935714;29;20215;-75
2023/06/16 14:23:02;;;;;;;4.00;3.20;;;;;;;;;;4932339;29;20308;-74
2023/06/16 14:25:28;;;;;;;3.53;3.23;;;;;;;;;;4941528;29;20183;-74
2023/06/16 14:27:55;;;;;;;3.57;3.27;;;;;;;;;;4934132;29;20245;-76
2023/06/16 14:30:21;;;;;;;3.70;3.40;;;;;;;;;;4926070;29;20204;-75
2023/06/16 14:32:47;;;;;;;3.58;3.15;;;;;;;;;;4934123;29;20289;-74
2023/06/16 14:35:13;;;;;;;3.53;3.22;;;;;;;;;;4934212;28;20189;-73
2023/06/16 14:37:39;;;;;;;3.30;3.00;;;;;;;;;;4932549;29;20653;-74
2023/06/16 14:40:06;;;;;;;3.60;3.10;;;;;;;;;;4927658;29;20611;-76
2023/06/16 14:42:33;;;;;;;4.07;3.00;;;;;;;;;;4930568;29;20234;-75
2023/06/16 14:44:59;;;;;;;3.30;3.10;;;;;;;;;;4932232;29;20574;-75